Terminal Aerodrome Forecast
Issued by NWS

Current Version | Previous Version | Text Only | Print | Product List | Glossary On
Versions: 1 2 3 4 5 6 7 8 9 10 11 12 13 14 15 16 17 18 19
000
FTUS43 KIND 270810 AAA
TAFHUF
TAF AMD
KHUF 270810Z 2708/2806 23006KT P6SM OVC015
     FM270900 VRB04KT 4SM BR BKN008
     FM271400 36005KT P6SM BKN015
     FM271600 VRB04KT P6SM SCT035
     FM280400 14005KT P6SM -SHRA BKN090=

USA.gov is the U.S. government's official web portal to all federal, state and local government web resources and services.